createdAt,value
2018-09-09T00:01:38.228Z,14.40
2018-09-09T00:04:07.326Z,14.40
2018-09-09T00:06:36.783Z,14.40
2018-09-09T00:09:07.107Z,14.40
2018-09-09T00:11:36.084Z,14.40
2018-09-09T00:14:05.137Z,14.40
2018-09-09T00:16:33.996Z,14.40
2018-09-09T00:19:02.989Z,14.40
2018-09-09T00:21:32.116Z,14.40
2018-09-09T00:24:01.918Z,14.30
2018-09-09T00:26:30.916Z,14.30
2018-09-09T00:28:59.913Z,14.30
2018-09-09T00:31:29.217Z,14.20
2018-09-09T00:33:58.638Z,14.20
2018-09-09T00:36:27.738Z,14.20
2018-09-09T00:38:56.807Z,14.20
2018-09-09T00:41:26.333Z,14.10
2018-09-09T00:43:56.103Z,14.10
2018-09-09T00:46:25.740Z,14.10
2018-09-09T00:49:00.136Z,14.10
2018-09-09T00:53:36.703Z,14.10
2018-09-09T00:56:06.387Z,14.10
2018-09-09T00:58:37.112Z,14.20
2018-09-09T01:01:11.617Z,14.20
2018-09-09T01:03:40.982Z,14.30
2018-09-09T01:06:10.097Z,14.30
2018-09-09T01:08:39.654Z,14.40
2018-09-09T01:11:09.927Z,14.40
2018-09-09T01:13:39.164Z,14.40
2018-09-09T01:16:08.628Z,14.40
2018-09-09T01:18:37.876Z,14.30
2018-09-09T01:21:06.991Z,14.30
2018-09-09T01:23:36.406Z,14.30
2018-09-09T01:26:06.044Z,14.20
2018-09-09T01:28:35.605Z,14.20
2018-09-09T01:31:04.648Z,14.20
2018-09-09T01:33:33.849Z,14.20
2018-09-09T01:36:03.904Z,14.30
2018-09-09T01:38:32.895Z,14.30
2018-09-09T01:41:01.788Z,14.40
2018-09-09T01:43:31.141Z,14.30
2018-09-09T01:46:00.237Z,14.30
2018-09-09T01:48:29.282Z,14.20
2018-09-09T01:50:58.188Z,14.10
2018-09-09T01:53:27.116Z,14.00
2018-09-09T01:55:56.091Z,14.00
2018-09-09T01:58:24.995Z,13.90
2018-09-09T02:00:54.009Z,13.90
2018-09-09T02:03:23.016Z,13.80
2018-09-09T02:05:52.013Z,13.80
2018-09-09T02:08:20.933Z,13.80
2018-09-09T02:10:49.995Z,13.80
2018-09-09T02:13:19.004Z,13.80
2018-09-09T02:15:47.866Z,13.90
2018-09-09T02:18:16.913Z,13.90
2018-09-09T02:20:45.880Z,13.90
2018-09-09T02:23:14.823Z,13.90
2018-09-09T02:25:44.423Z,13.90
2018-09-09T02:28:13.436Z,13.90
2018-09-09T02:30:42.381Z,14.00
2018-09-09T02:33:11.877Z,14.10
2018-09-09T02:35:40.786Z,14.30
2018-09-09T02:38:09.765Z,14.40
2018-09-09T02:40:38.785Z,14.60
2018-09-09T02:43:07.653Z,14.60
2018-09-09T02:45:36.616Z,14.70
2018-09-09T02:48:06.052Z,14.70
2018-09-09T02:50:35.044Z,14.80
2018-09-09T02:53:03.935Z,14.80
2018-09-09T02:55:32.936Z,14.80
2018-09-09T02:58:01.858Z,14.80
2018-09-09T03:00:30.879Z,14.80
2018-09-09T03:03:01.405Z,14.80
2018-09-09T03:05:30.350Z,14.70
2018-09-09T03:07:59.246Z,14.80
2018-09-09T03:10:28.224Z,14.90
2018-09-09T03:12:57.132Z,14.90
2018-09-09T03:15:26.067Z,14.90
2018-09-09T03:17:54.991Z,14.90
2018-09-09T03:20:23.857Z,14.90
2018-09-09T03:22:52.798Z,14.90
2018-09-09T03:25:21.740Z,14.90
2018-09-09T03:27:50.605Z,15.00
2018-09-09T03:30:19.553Z,15.00
2018-09-09T03:32:48.509Z,15.00
2018-09-09T03:35:17.396Z,14.90
2018-09-09T03:37:46.357Z,15.00
2018-09-09T03:40:15.382Z,15.00
2018-09-09T03:42:44.384Z,15.00
2018-09-09T03:45:13.404Z,15.00
2018-09-09T03:47:42.387Z,15.00
2018-09-09T03:50:11.730Z,15.10
2018-09-09T03:52:41.025Z,15.00
2018-09-09T03:55:10.025Z,15.10
2018-09-09T03:57:39.362Z,15.10
2018-09-09T04:00:08.409Z,15.20
2018-09-09T04:02:37.343Z,15.20
2018-09-09T04:05:06.485Z,15.30
2018-09-09T04:07:35.461Z,15.30
2018-09-09T04:10:04.548Z,15.30
2018-09-09T04:12:33.426Z,15.20
2018-09-09T04:15:02.374Z,15.20
2018-09-09T04:17:31.288Z,15.30
2018-09-09T04:20:00.294Z,15.30
2018-09-09T04:22:29.193Z,15.30
2018-09-09T04:24:58.172Z,15.30
2018-09-09T04:27:27.125Z,15.20
2018-09-09T04:29:56.052Z,15.20
2018-09-09T04:32:24.952Z,15.20
2018-09-09T04:34:53.837Z,15.10
2018-09-09T04:37:22.708Z,15.10
2018-09-09T04:39:51.602Z,15.00
2018-09-09T04:42:20.499Z,15.00
2018-09-09T04:44:49.398Z,14.90
2018-09-09T04:47:18.260Z,14.90
2018-09-09T04:49:47.190Z,14.90
2018-09-09T04:52:16.093Z,14.90
2018-09-09T04:54:45.042Z,14.90
2018-09-09T04:57:14.007Z,14.90
2018-09-09T04:59:43.311Z,14.90
2018-09-09T05:02:12.277Z,14.90
2018-09-09T05:04:41.165Z,15.00
2018-09-09T05:07:10.246Z,15.00
2018-09-09T05:09:39.124Z,15.00
2018-09-09T05:12:08.057Z,15.00
2018-09-09T05:14:37.050Z,15.10
2018-09-09T05:17:05.934Z,15.10
2018-09-09T05:19:34.877Z,15.20
2018-09-09T05:22:03.825Z,15.20
2018-09-09T05:24:32.744Z,15.20
2018-09-09T05:27:01.676Z,15.20
2018-09-09T05:29:30.711Z,15.20
2018-09-09T05:31:59.722Z,15.20
2018-09-09T05:34:28.629Z,15.20
2018-09-09T05:36:57.563Z,15.20
2018-09-09T05:39:26.430Z,15.30
2018-09-09T05:41:55.292Z,15.20
2018-09-09T05:44:24.217Z,15.30
2018-09-09T05:46:53.279Z,15.30
2018-09-09T05:49:22.226Z,15.30
2018-09-09T05:51:51.239Z,15.40
2018-09-09T05:54:20.148Z,15.40
2018-09-09T05:56:49.128Z,15.40
2018-09-09T05:59:18.008Z,15.50
2018-09-09T06:01:46.912Z,15.50
2018-09-09T06:04:15.817Z,15.50
2018-09-09T06:06:44.771Z,15.60
2018-09-09T06:09:13.674Z,15.60
2018-09-09T06:11:42.627Z,15.60
2018-09-09T06:14:11.600Z,15.60
2018-09-09T06:16:40.951Z,15.60
2018-09-09T06:19:11.228Z,15.50
2018-09-09T06:21:40.201Z,15.40
2018-09-09T06:24:09.144Z,15.40
2018-09-09T06:26:38.165Z,15.50
2018-09-09T06:29:07.036Z,15.50
2018-09-09T06:31:36.014Z,15.60
2018-09-09T06:34:05.501Z,15.70
2018-09-09T06:36:34.386Z,15.70
2018-09-09T06:39:03.654Z,15.80
2018-09-09T06:41:32.637Z,15.80
2018-09-09T06:44:01.883Z,15.90
2018-09-09T06:46:30.885Z,15.90
2018-09-09T06:48:59.884Z,15.90
2018-09-09T06:51:29.929Z,15.80
2018-09-09T06:53:59.464Z,15.80
2018-09-09T06:56:28.425Z,15.80
2018-09-09T06:58:57.642Z,15.90
2018-09-09T07:01:26.615Z,15.90
2018-09-09T07:03:55.664Z,15.90
2018-09-09T07:06:24.681Z,16.00
2018-09-09T07:08:53.615Z,16.00
2018-09-09T07:11:22.646Z,16.00
2018-09-09T07:13:51.495Z,16.00
2018-09-09T07:16:20.415Z,16.00
2018-09-09T07:18:52.244Z,16.00
2018-09-09T07:21:21.295Z,16.00
2018-09-09T07:23:50.309Z,16.10
2018-09-09T07:26:19.399Z,16.10
2018-09-09T07:28:52.977Z,16.20
2018-09-09T07:31:22.267Z,16.30
2018-09-09T07:33:51.277Z,16.30
2018-09-09T07:36:20.433Z,16.40
2018-09-09T07:38:53.940Z,16.40
2018-09-09T07:41:23.261Z,16.60
2018-09-09T07:43:52.205Z,16.70
2018-09-09T07:46:21.183Z,16.80
2018-09-09T07:48:50.295Z,16.90
2018-09-09T07:51:19.264Z,17.10
2018-09-09T07:53:48.152Z,17.30
2018-09-09T07:56:17.256Z,17.40
2018-09-09T07:58:46.166Z,17.60
2018-09-09T08:01:15.144Z,17.70
2018-09-09T08:03:44.052Z,17.70
2018-09-09T08:06:12.992Z,17.70
2018-09-09T08:08:42.064Z,17.60
2018-09-09T08:11:11.582Z,17.60
2018-09-09T08:13:43.116Z,17.60
2018-09-09T08:16:12.987Z,17.60
2018-09-09T08:18:41.932Z,17.70
2018-09-09T08:21:10.837Z,17.70
2018-09-09T08:23:39.871Z,17.70
2018-09-09T08:26:09.848Z,17.70
2018-09-09T08:28:40.073Z,17.50
2018-09-09T08:31:09.017Z,17.30
2018-09-09T08:33:38.063Z,17.10
2018-09-09T08:36:07.084Z,17.10
2018-09-09T08:38:36.090Z,17.00
2018-09-09T08:41:05.361Z,16.70
2018-09-09T08:43:34.353Z,16.60
2018-09-09T08:46:03.372Z,16.40
2018-09-09T08:48:32.296Z,16.60
2018-09-09T08:51:01.859Z,16.70
2018-09-09T08:53:30.917Z,16.80
2018-09-09T08:55:59.938Z,17.00
2018-09-09T08:58:29.040Z,17.30
2018-09-09T09:00:59.689Z,17.50
2018-09-09T09:03:28.997Z,17.60
2018-09-09T09:05:59.031Z,17.70
2018-09-09T09:08:27.989Z,17.50
2018-09-09T09:10:57.534Z,17.50
2018-09-09T09:13:27.344Z,17.60
2018-09-09T09:15:57.138Z,17.40
2018-09-09T09:18:27.313Z,17.40
2018-09-09T09:20:56.397Z,17.50
2018-09-09T09:23:28.462Z,17.60
2018-09-09T09:25:57.831Z,17.50
2018-09-09T09:28:26.846Z,17.50
2018-09-09T09:30:55.744Z,17.60
2018-09-09T09:33:24.673Z,17.70
2018-09-09T09:35:54.931Z,17.80
2018-09-09T09:38:26.263Z,17.80
2018-09-09T09:40:55.216Z,17.90
2018-09-09T09:43:24.624Z,18.10
2018-09-09T09:45:54.514Z,18.10
2018-09-09T09:48:24.215Z,18.00
2018-09-09T09:50:54.767Z,18.20
2018-09-09T09:53:32.640Z,18.50
2018-09-09T09:56:01.710Z,18.60
2018-09-09T09:58:31.262Z,18.60
2018-09-09T10:03:41.321Z,18.60
2018-09-09T10:06:10.297Z,18.50
2018-09-09T10:08:39.333Z,18.50
2018-09-09T10:11:08.284Z,18.50
2018-09-09T10:13:37.863Z,18.60
2018-09-09T10:16:07.248Z,18.70
2018-09-09T10:18:36.409Z,18.80
2018-09-09T10:21:06.528Z,18.70
2018-09-09T10:23:35.676Z,18.60
2018-09-09T10:26:04.618Z,18.60
2018-09-09T10:28:33.640Z,18.60
2018-09-09T10:31:02.628Z,18.80
2018-09-09T10:33:31.607Z,18.90
2018-09-09T10:36:00.537Z,18.80
2018-09-09T10:38:30.402Z,18.70
2018-09-09T10:40:59.586Z,18.70
2018-09-09T10:43:28.780Z,18.80
2018-09-09T10:45:57.787Z,18.90
2018-09-09T10:48:26.864Z,18.90
2018-09-09T10:50:56.231Z,18.80
2018-09-09T10:53:25.392Z,19.00
2018-09-09T10:55:54.364Z,19.00
2018-09-09T10:58:24.586Z,19.00
2018-09-09T11:00:53.570Z,18.90
2018-09-09T11:03:22.870Z,19.00
2018-09-09T11:05:51.856Z,19.30
2018-09-09T11:08:21.858Z,19.60
2018-09-09T11:10:51.714Z,19.60
2018-09-09T11:13:20.630Z,19.40
2018-09-09T11:15:49.772Z,19.20
2018-09-09T11:18:19.270Z,19.00
2018-09-09T11:20:48.257Z,19.10
2018-09-09T11:23:17.363Z,19.20
2018-09-09T11:25:46.280Z,19.10
2018-09-09T11:28:15.224Z,19.00
2018-09-09T11:30:44.261Z,18.70
2018-09-09T11:33:13.391Z,18.50
2018-09-09T11:35:44.460Z,18.80
2018-09-09T11:38:13.528Z,19.20
2018-09-09T11:40:42.502Z,19.70
2018-09-09T11:43:11.571Z,19.80
2018-09-09T11:45:40.604Z,20.00
2018-09-09T11:48:09.972Z,20.20
2018-09-09T11:50:39.044Z,20.20
2018-09-09T11:53:08.743Z,20.30
2018-09-09T11:55:37.736Z,20.30
2018-09-09T11:58:07.345Z,20.30
2018-09-09T12:00:36.757Z,20.30
2018-09-09T12:03:06.324Z,20.00
2018-09-09T12:05:35.567Z,19.80
2018-09-09T12:08:04.914Z,19.70
2018-09-09T12:10:34.081Z,19.60
2018-09-09T12:13:03.147Z,19.70
2018-09-09T12:15:32.363Z,19.80
2018-09-09T12:18:01.355Z,19.80
2018-09-09T12:20:30.445Z,19.90
2018-09-09T12:22:59.655Z,20.00
2018-09-09T12:25:28.741Z,20.20
2018-09-09T12:27:58.837Z,20.50
2018-09-09T12:30:28.478Z,20.70
2018-09-09T12:33:03.990Z,20.40
2018-09-09T12:39:34.531Z,20.10
2018-09-09T12:42:06.041Z,20.10
2018-09-09T12:44:41.984Z,20.20
2018-09-09T12:47:16.801Z,20.20
2018-09-09T12:49:45.672Z,20.20
2018-09-09T12:52:14.710Z,20.40
2018-09-09T12:54:44.180Z,20.60
2018-09-09T12:57:13.152Z,20.90
2018-09-09T12:59:42.491Z,21.30
2018-09-09T13:02:11.460Z,21.60
2018-09-09T13:04:40.809Z,21.60
2018-09-09T13:07:09.882Z,21.30
2018-09-09T13:09:38.844Z,21.20
2018-09-09T13:12:07.884Z,21.10
2018-09-09T13:14:36.788Z,21.20
2018-09-09T13:17:05.906Z,21.70
2018-09-09T13:19:35.849Z,22.60
2018-09-09T13:22:05.293Z,23.20
2018-09-09T13:24:34.303Z,23.90
2018-09-09T13:27:03.221Z,24.60
2018-09-09T13:29:32.136Z,24.60
2018-09-09T13:32:01.063Z,25.00
2018-09-09T13:34:30.056Z,25.10
2018-09-09T13:36:59.195Z,24.20
2018-09-09T13:39:30.134Z,22.10
2018-09-09T13:41:59.070Z,21.80
2018-09-09T13:44:28.115Z,22.30
2018-09-09T13:46:57.200Z,23.60
2018-09-09T13:49:26.841Z,23.90
2018-09-09T13:51:56.139Z,23.50
2018-09-09T13:54:25.681Z,22.90
2018-09-09T13:56:54.771Z,22.70
2018-09-09T13:59:23.801Z,22.40
2018-09-09T14:01:55.047Z,22.40
2018-09-09T14:04:24.743Z,22.30
2018-09-09T14:06:53.936Z,22.50
2018-09-09T14:09:22.956Z,22.40
2018-09-09T14:11:52.167Z,21.90
2018-09-09T14:14:21.461Z,21.40
2018-09-09T14:16:50.488Z,20.90
2018-09-09T14:19:19.500Z,20.50
2018-09-09T14:21:48.530Z,20.80
2018-09-09T14:24:17.696Z,21.30
2018-09-09T14:26:52.522Z,21.50
2018-09-09T14:29:23.985Z,21.20
2018-09-09T14:31:54.986Z,21.00
2018-09-09T14:34:24.155Z,20.80
2018-09-09T14:36:53.692Z,21.00
2018-09-09T14:39:22.691Z,21.50
2018-09-09T14:41:53.900Z,21.30
2018-09-09T14:44:22.976Z,21.30
2018-09-09T14:46:52.048Z,22.00
2018-09-09T14:49:21.199Z,23.70
2018-09-09T14:51:52.009Z,25.50
2018-09-09T14:54:21.058Z,25.40
2018-09-09T14:56:51.352Z,24.60
2018-09-09T14:59:22.113Z,23.90
2018-09-09T15:01:52.490Z,23.30
2018-09-09T15:04:21.721Z,22.50
2018-09-09T15:06:50.711Z,21.90
2018-09-09T15:09:22.022Z,21.30
2018-09-09T15:11:51.087Z,20.70
2018-09-09T15:14:20.158Z,20.30
2018-09-09T15:16:49.170Z,20.00
2018-09-09T15:19:19.973Z,19.90
2018-09-09T15:21:49.082Z,19.70
2018-09-09T15:24:18.079Z,19.70
2018-09-09T15:26:47.099Z,20.00
2018-09-09T15:29:16.353Z,20.10
2018-09-09T15:31:45.453Z,20.00
2018-09-09T15:34:14.540Z,20.40
2018-09-09T15:36:44.263Z,20.90
2018-09-09T15:39:14.448Z,21.90
2018-09-09T15:41:43.548Z,23.00
2018-09-09T15:44:12.543Z,23.90
2018-09-09T15:46:41.693Z,24.30
2018-09-09T15:49:12.556Z,23.90
2018-09-09T15:51:42.543Z,23.90
2018-09-09T15:54:11.658Z,23.50
2018-09-09T15:56:40.761Z,22.90
2018-09-09T15:59:10.821Z,22.20
2018-09-09T16:01:39.817Z,21.50
2018-09-09T16:04:09.106Z,21.10
2018-09-09T16:06:39.856Z,20.80
2018-09-09T16:09:10.119Z,20.70
2018-09-09T16:11:39.660Z,20.40
2018-09-09T16:14:08.921Z,20.40
2018-09-09T16:16:38.303Z,20.40
2018-09-09T16:19:08.594Z,20.40
2018-09-09T16:21:37.634Z,20.60
2018-09-09T16:24:07.030Z,20.70
2018-09-09T16:26:36.020Z,20.70
2018-09-09T16:29:14.532Z,20.50
2018-09-09T16:31:44.186Z,20.30
2018-09-09T16:34:14.359Z,20.10
2018-09-09T16:36:47.740Z,19.90
2018-09-09T16:39:17.013Z,19.90
2018-09-09T16:41:53.133Z,19.90
2018-09-09T16:44:22.672Z,19.80
2018-09-09T16:46:53.136Z,19.70
2018-09-09T16:49:22.303Z,19.60
2018-09-09T16:51:51.724Z,19.50
2018-09-09T16:54:21.266Z,19.30
2018-09-09T16:56:51.210Z,19.30
2018-09-09T16:59:20.648Z,19.20
2018-09-09T17:01:51.026Z,19.20
2018-09-09T17:04:20.222Z,19.20
2018-09-09T17:06:54.421Z,19.10
2018-09-09T17:09:23.697Z,19.00
2018-09-09T17:11:53.582Z,18.90
2018-09-09T17:14:22.781Z,18.90
2018-09-09T17:16:51.938Z,18.80
2018-09-09T17:19:21.856Z,18.70
2018-09-09T17:24:37.504Z,18.30
2018-09-09T17:27:06.786Z,18.10
2018-09-09T17:29:42.401Z,18.00
2018-09-09T17:32:19.252Z,18.00
2018-09-09T17:34:49.707Z,17.90
2018-09-09T17:37:20.346Z,17.80
2018-09-09T17:49:12.656Z,17.70
2018-09-09T17:51:44.669Z,17.60
2018-09-09T17:54:14.194Z,17.50
2018-09-09T17:56:45.712Z,17.50
2018-09-09T17:59:21.095Z,17.40
2018-09-09T18:01:55.000Z,17.40
2018-09-09T18:04:25.256Z,17.40
2018-09-09T18:06:55.197Z,17.30
2018-09-09T18:09:25.810Z,17.30
2018-09-09T18:12:11.656Z,17.30
2018-09-09T18:14:40.703Z,17.30
2018-09-09T18:17:14.805Z,17.20
2018-09-09T18:19:44.703Z,17.10
2018-09-09T18:22:17.048Z,17.10
2018-09-09T18:24:46.119Z,17.10
2018-09-09T18:27:15.051Z,17.00
2018-09-09T18:29:45.237Z,17.00
2018-09-09T18:32:14.256Z,17.00
2018-09-09T18:34:44.896Z,17.00
2018-09-09T18:37:13.886Z,17.00
2018-09-09T18:39:47.050Z,16.90
2018-09-09T18:42:16.097Z,16.80
2018-09-09T18:44:45.556Z,16.60
2018-09-09T18:47:14.611Z,16.40
2018-09-09T18:49:46.461Z,16.20
2018-09-09T18:52:16.382Z,16.00
2018-09-09T18:54:45.942Z,15.90
2018-09-09T18:57:15.387Z,15.70
2018-09-09T18:59:46.810Z,15.60
2018-09-09T19:02:16.026Z,15.50
2018-09-09T19:04:45.063Z,15.40
2018-09-09T19:07:14.442Z,15.50
2018-09-09T19:09:51.057Z,15.60
2018-09-09T19:12:21.229Z,15.50
2018-09-09T19:14:50.694Z,15.60
2018-09-09T19:17:19.846Z,15.50
2018-09-09T19:19:50.943Z,15.50
2018-09-09T19:22:27.150Z,15.50
2018-09-09T19:24:56.177Z,15.60
2018-09-09T19:27:25.531Z,15.60
2018-09-09T19:29:54.984Z,15.70
2018-09-09T19:32:25.611Z,15.80
2018-09-09T19:34:55.374Z,15.80
2018-09-09T19:37:24.466Z,15.80
2018-09-09T19:39:54.829Z,15.70
2018-09-09T19:42:24.349Z,15.60
2018-09-09T19:44:54.641Z,15.60
2018-09-09T19:47:24.693Z,15.50
2018-09-09T19:49:55.592Z,15.40
2018-09-09T19:52:25.253Z,15.30
2018-09-09T19:54:54.493Z,15.30
2018-09-09T19:57:23.639Z,15.30
2018-09-09T19:59:54.188Z,15.30
2018-09-09T20:02:24.028Z,15.30
2018-09-09T20:04:53.691Z,15.40
2018-09-09T20:07:22.827Z,15.40
2018-09-09T20:09:53.998Z,15.50
2018-09-09T20:12:23.005Z,15.50
2018-09-09T20:14:52.065Z,15.50
2018-09-09T20:17:22.154Z,15.60
2018-09-09T20:19:55.446Z,15.60
2018-09-09T20:22:27.610Z,15.60
2018-09-09T20:24:57.610Z,15.60
2018-09-09T20:27:26.642Z,15.60
2018-09-09T20:29:57.707Z,15.60
2018-09-09T20:32:27.296Z,15.60
2018-09-09T20:34:57.702Z,15.60
2018-09-09T20:37:27.024Z,15.60
2018-09-09T20:39:58.019Z,15.60
2018-09-09T20:42:27.031Z,15.60
2018-09-09T20:44:56.267Z,15.70
2018-09-09T20:47:26.841Z,15.60
2018-09-09T20:50:01.707Z,15.60
2018-09-09T20:52:32.205Z,15.60
2018-09-09T20:55:01.882Z,15.60
2018-09-09T20:57:31.091Z,15.70
2018-09-09T21:00:02.651Z,15.70
2018-09-09T21:02:31.902Z,15.60
2018-09-09T21:05:03.571Z,15.60
2018-09-09T21:07:33.779Z,15.60
2018-09-09T21:10:02.883Z,15.50
2018-09-09T21:12:32.539Z,15.50
2018-09-09T21:15:07.767Z,15.40
2018-09-09T21:17:37.003Z,15.50
2018-09-09T21:20:07.547Z,15.50
2018-09-09T21:22:37.186Z,15.40
2018-09-09T21:25:07.220Z,15.40
2018-09-09T21:27:38.219Z,15.40
2018-09-09T21:30:07.454Z,15.40
2018-09-09T21:32:39.077Z,15.40
2018-09-09T21:37:51.588Z,15.40
2018-09-09T21:40:22.555Z,15.40
2018-09-09T21:42:53.077Z,15.40
2018-09-09T21:45:23.266Z,15.40
2018-09-09T21:47:52.853Z,15.40
2018-09-09T21:50:23.590Z,15.40
2018-09-09T21:52:53.561Z,15.40
2018-09-09T21:55:23.196Z,15.50
2018-09-09T21:57:53.343Z,15.50
2018-09-09T22:00:23.477Z,15.50
2018-09-09T22:02:53.615Z,15.50
2018-09-09T22:05:24.264Z,15.50
2018-09-09T22:07:54.062Z,15.50
2018-09-09T22:10:24.241Z,15.50
2018-09-09T22:12:56.519Z,15.50
2018-09-09T22:15:26.179Z,15.40
2018-09-09T22:17:56.661Z,15.40
2018-09-09T22:20:26.121Z,15.40
2018-09-09T22:22:55.884Z,15.40
2018-09-09T22:25:26.128Z,15.40
2018-09-09T22:27:56.245Z,15.30
2018-09-09T22:30:26.187Z,15.40
2018-09-09T22:32:56.336Z,15.30
2018-09-09T22:35:26.232Z,15.30
2018-09-09T22:37:56.412Z,15.30
2018-09-09T22:40:26.560Z,15.30
2018-09-09T22:42:56.274Z,15.30
2018-09-09T22:45:26.181Z,15.40
2018-09-09T22:47:56.461Z,15.40
2018-09-09T22:50:26.352Z,15.40
2018-09-09T22:52:56.158Z,15.40
2018-09-09T22:55:26.303Z,15.40
2018-09-09T22:57:55.613Z,15.40
2018-09-09T23:00:25.621Z,15.40
2018-09-09T23:02:54.996Z,15.40
2018-09-09T23:05:25.301Z,15.40
2018-09-09T23:07:54.478Z,15.40
2018-09-09T23:10:25.452Z,15.40
2018-09-09T23:12:54.738Z,15.40
2018-09-09T23:15:26.464Z,15.30
2018-09-09T23:17:57.234Z,15.40
2018-09-09T23:20:26.650Z,15.30
2018-09-09T23:22:55.641Z,15.20
2018-09-09T23:25:25.387Z,15.20
2018-09-09T23:27:54.405Z,15.10
2018-09-09T23:30:28.560Z,15.10
2018-09-09T23:32:57.574Z,15.00
2018-09-09T23:35:26.694Z,14.90
2018-09-09T23:38:01.843Z,14.90
2018-09-09T23:40:31.075Z,14.80
2018-09-09T23:43:00.039Z,14.80
2018-09-09T23:45:30.441Z,14.80
2018-09-09T23:47:59.953Z,14.80
2018-09-09T23:50:40.106Z,14.80
2018-09-09T23:53:09.833Z,14.80
2018-09-09T23:55:41.947Z,14.70
2018-09-09T23:58:11.023Z,14.70
